sensor_id;sensor_type;location;lat;lon;timestamp;P1;durP1;ratioP1;P2;durP2;ratioP2
46090;SDS011;31826;53.572;10.170;2023-12-20T00:01:04;11.45;;;1.73;;
46090;SDS011;31826;53.572;10.170;2023-12-20T00:03:30;6.70;;;1.70;;
46090;SDS011;31826;53.572;10.170;2023-12-20T00:05:56;8.67;;;1.77;;
46090;SDS011;31826;53.572;10.170;2023-12-20T00:08:22;6.83;;;1.67;;
46090;SDS011;31826;53.572;10.170;2023-12-20T00:10:47;7.83;;;2.30;;
46090;SDS011;31826;53.572;10.170;2023-12-20T00:13:13;4.97;;;1.43;;
46090;SDS011;31826;53.572;10.170;2023-12-20T00:15:39;12.00;;;2.30;;
46090;SDS011;31826;53.572;10.170;2023-12-20T00:18:04;12.50;;;2.10;;
46090;SDS011;31826;53.572;10.170;2023-12-20T00:20:30;8.27;;;2.20;;
46090;SDS011;31826;53.572;10.170;2023-12-20T00:22:56;10.07;;;2.15;;
46090;SDS011;31826;53.572;10.170;2023-12-20T00:25:25;9.38;;;1.75;;
46090;SDS011;31826;53.572;10.170;2023-12-20T00:27:51;8.75;;;1.65;;
46090;SDS011;31826;53.572;10.170;2023-12-20T00:30:17;6.97;;;1.60;;
46090;SDS011;31826;53.572;10.170;2023-12-20T00:32:43;8.60;;;1.93;;
46090;SDS011;31826;53.572;10.170;2023-12-20T00:35:14;10.50;;;2.13;;
46090;SDS011;31826;53.572;10.170;2023-12-20T00:37:40;8.38;;;2.05;;
46090;SDS011;31826;53.572;10.170;2023-12-20T00:40:06;9.38;;;2.50;;
46090;SDS011;31826;53.572;10.170;2023-12-20T00:42:33;8.40;;;1.73;;
46090;SDS011;31826;53.572;10.170;2023-12-20T00:44:58;11.80;;;2.03;;
46090;SDS011;31826;53.572;10.170;2023-12-20T00:47:25;4.90;;;1.63;;
46090;SDS011;31826;53.572;10.170;2023-12-20T00:49:51;9.07;;;1.92;;
46090;SDS011;31826;53.572;10.170;2023-12-20T00:52:17;11.03;;;2.00;;
46090;SDS011;31826;53.572;10.170;2023-12-20T00:54:43;9.50;;;2.50;;
46090;SDS011;31826;53.572;10.170;2023-12-20T00:57:09;8.98;;;1.85;;
46090;SDS011;31826;53.572;10.170;2023-12-20T00:59:35;11.07;;;2.10;;
46090;SDS011;31826;53.572;10.170;2023-12-20T01:02:00;10.00;;;2.35;;
46090;SDS011;31826;53.572;10.170;2023-12-20T01:04:26;14.63;;;2.50;;
46090;SDS011;31826;53.572;10.170;2023-12-20T01:06:52;9.20;;;1.70;;
46090;SDS011;31826;53.572;10.170;2023-12-20T01:09:18;9.85;;;2.53;;
46090;SDS011;31826;53.572;10.170;2023-12-20T01:11:44;10.07;;;2.10;;
46090;SDS011;31826;53.572;10.170;2023-12-20T01:14:11;8.55;;;1.65;;
46090;SDS011;31826;53.572;10.170;2023-12-20T01:16:37;11.15;;;2.65;;
46090;SDS011;31826;53.572;10.170;2023-12-20T01:19:03;8.98;;;2.05;;
46090;SDS011;31826;53.572;10.170;2023-12-20T01:21:28;6.60;;;1.92;;
46090;SDS011;31826;53.572;10.170;2023-12-20T01:23:54;8.00;;;1.90;;
46090;SDS011;31826;53.572;10.170;2023-12-20T01:26:20;9.38;;;2.40;;
46090;SDS011;31826;53.572;10.170;2023-12-20T01:28:45;9.80;;;2.00;;
46090;SDS011;31826;53.572;10.170;2023-12-20T01:31:11;8.57;;;1.70;;
46090;SDS011;31826;53.572;10.170;2023-12-20T01:33:37;6.90;;;1.83;;
46090;SDS011;31826;53.572;10.170;2023-12-20T01:36:03;9.37;;;1.97;;
46090;SDS011;31826;53.572;10.170;2023-12-20T01:38:29;7.55;;;2.15;;
46090;SDS011;31826;53.572;10.170;2023-12-20T01:40:55;9.40;;;2.00;;
46090;SDS011;31826;53.572;10.170;2023-12-20T01:43:20;7.75;;;1.60;;
46090;SDS011;31826;53.572;10.170;2023-12-20T01:45:46;12.18;;;1.90;;
46090;SDS011;31826;53.572;10.170;2023-12-20T01:48:12;9.93;;;1.95;;
46090;SDS011;31826;53.572;10.170;2023-12-20T01:50:39;11.80;;;2.13;;
46090;SDS011;31826;53.572;10.170;2023-12-20T01:53:07;8.57;;;1.85;;
46090;SDS011;31826;53.572;10.170;2023-12-20T01:55:34;13.38;;;1.98;;
46090;SDS011;31826;53.572;10.170;2023-12-20T01:58:04;3.70;;;1.52;;
46090;SDS011;31826;53.572;10.170;2023-12-20T02:00:30;7.95;;;2.25;;
46090;SDS011;31826;53.572;10.170;2023-12-20T02:02:56;12.85;;;2.40;;
46090;SDS011;31826;53.572;10.170;2023-12-20T02:05:25;6.70;;;2.10;;
46090;SDS011;31826;53.572;10.170;2023-12-20T02:07:53;14.07;;;2.10;;
46090;SDS011;31826;53.572;10.170;2023-12-20T02:10:18;16.27;;;1.88;;
46090;SDS011;31826;53.572;10.170;2023-12-20T02:12:44;11.95;;;2.13;;
46090;SDS011;31826;53.572;10.170;2023-12-20T02:15:10;10.02;;;2.00;;
46090;SDS011;31826;53.572;10.170;2023-12-20T02:17:36;7.43;;;1.73;;
46090;SDS011;31826;53.572;10.170;2023-12-20T02:20:03;14.93;;;2.80;;
46090;SDS011;31826;53.572;10.170;2023-12-20T02:22:30;12.75;;;2.08;;
46090;SDS011;31826;53.572;10.170;2023-12-20T02:24:56;11.10;;;2.13;;
46090;SDS011;31826;53.572;10.170;2023-12-20T02:27:22;9.00;;;1.80;;
46090;SDS011;31826;53.572;10.170;2023-12-20T02:29:48;10.68;;;2.22;;
46090;SDS011;31826;53.572;10.170;2023-12-20T02:32:15;9.13;;;1.90;;
46090;SDS011;31826;53.572;10.170;2023-12-20T02:34:43;10.63;;;1.97;;
46090;SDS011;31826;53.572;10.170;2023-12-20T02:37:09;10.65;;;2.30;;
46090;SDS011;31826;53.572;10.170;2023-12-20T02:39:34;6.40;;;1.80;;
46090;SDS011;31826;53.572;10.170;2023-12-20T02:42:00;9.33;;;1.67;;
46090;SDS011;31826;53.572;10.170;2023-12-20T02:44:26;9.83;;;1.93;;
46090;SDS011;31826;53.572;10.170;2023-12-20T02:46:51;10.27;;;2.07;;
46090;SDS011;31826;53.572;10.170;2023-12-20T02:49:17;9.40;;;2.20;;
46090;SDS011;31826;53.572;10.170;2023-12-20T02:51:43;11.13;;;1.93;;
46090;SDS011;31826;53.572;10.170;2023-12-20T02:54:09;9.63;;;2.17;;
46090;SDS011;31826;53.572;10.170;2023-12-20T02:56:34;12.67;;;2.23;;
46090;SDS011;31826;53.572;10.170;2023-12-20T02:59:00;10.93;;;1.83;;
46090;SDS011;31826;53.572;10.170;2023-12-20T03:01:27;10.07;;;1.93;;
46090;SDS011;31826;53.572;10.170;2023-12-20T03:03:54;5.65;;;1.92;;
46090;SDS011;31826;53.572;10.170;2023-12-20T03:06:19;12.50;;;2.00;;
46090;SDS011;31826;53.572;10.170;2023-12-20T03:08:45;7.73;;;1.80;;
46090;SDS011;31826;53.572;10.170;2023-12-20T03:11:11;14.30;;;2.40;;
46090;SDS011;31826;53.572;10.170;2023-12-20T03:13:37;6.23;;;2.03;;
46090;SDS011;31826;53.572;10.170;2023-12-20T03:16:09;10.10;;;2.40;;
46090;SDS011;31826;53.572;10.170;2023-12-20T03:18:36;8.73;;;1.85;;
46090;SDS011;31826;53.572;10.170;2023-12-20T03:21:02;11.77;;;2.47;;
46090;SDS011;31826;53.572;10.170;2023-12-20T03:23:29;12.18;;;2.60;;
46090;SDS011;31826;53.572;10.170;2023-12-20T03:25:55;6.47;;;2.05;;
46090;SDS011;31826;53.572;10.170;2023-12-20T03:28:21;12.77;;;3.20;;
46090;SDS011;31826;53.572;10.170;2023-12-20T03:30:48;10.88;;;2.15;;
46090;SDS011;31826;53.572;10.170;2023-12-20T03:33:14;10.65;;;2.42;;
46090;SDS011;31826;53.572;10.170;2023-12-20T03:35:39;12.98;;;3.03;;
46090;SDS011;31826;53.572;10.170;2023-12-20T03:38:05;13.63;;;2.15;;
46090;SDS011;31826;53.572;10.170;2023-12-20T03:40:31;8.27;;;1.80;;
46090;SDS011;31826;53.572;10.170;2023-12-20T03:42:56;10.13;;;2.30;;
46090;SDS011;31826;53.572;10.170;2023-12-20T03:45:22;11.85;;;1.90;;
46090;SDS011;31826;53.572;10.170;2023-12-20T03:47:48;11.27;;;2.50;;
46090;SDS011;31826;53.572;10.170;2023-12-20T03:50:14;9.32;;;1.80;;
46090;SDS011;31826;53.572;10.170;2023-12-20T03:52:40;11.55;;;2.33;;
46090;SDS011;31826;53.572;10.170;2023-12-20T03:55:06;8.67;;;1.60;;
46090;SDS011;31826;53.572;10.170;2023-12-20T03:57:31;11.63;;;1.90;;
46090;SDS011;31826;53.572;10.170;2023-12-20T03:59:57;7.63;;;1.80;;
46090;SDS011;31826;53.572;10.170;2023-12-20T04:02:23;11.48;;;2.10;;
46090;SDS011;31826;53.572;10.170;2023-12-20T04:04:48;7.60;;;1.58;;
46090;SDS011;31826;53.572;10.170;2023-12-20T04:07:14;8.32;;;1.85;;
46090;SDS011;31826;53.572;10.170;2023-12-20T04:09:40;9.32;;;2.13;;
46090;SDS011;31826;53.572;10.170;2023-12-20T04:12:06;12.88;;;2.47;;
46090;SDS011;31826;53.572;10.170;2023-12-20T04:14:32;10.45;;;2.13;;
46090;SDS011;31826;53.572;10.170;2023-12-20T04:16:58;8.77;;;1.70;;
46090;SDS011;31826;53.572;10.170;2023-12-20T04:19:23;11.50;;;2.27;;
46090;SDS011;31826;53.572;10.170;2023-12-20T04:21:49;9.60;;;2.43;;
46090;SDS011;31826;53.572;10.170;2023-12-20T04:24:15;7.00;;;1.70;;
46090;SDS011;31826;53.572;10.170;2023-12-20T04:26:41;7.17;;;2.13;;
46090;SDS011;31826;53.572;10.170;2023-12-20T04:29:06;10.07;;;3.07;;
46090;SDS011;31826;53.572;10.170;2023-12-20T04:31:32;9.25;;;2.00;;
46090;SDS011;31826;53.572;10.170;2023-12-20T04:33:58;9.27;;;2.10;;
46090;SDS011;31826;53.572;10.170;2023-12-20T04:36:23;9.10;;;1.85;;
46090;SDS011;31826;53.572;10.170;2023-12-20T04:38:51;10.32;;;2.40;;
46090;SDS011;31826;53.572;10.170;2023-12-20T04:41:18;8.55;;;2.03;;
46090;SDS011;31826;53.572;10.170;2023-12-20T04:43:44;10.15;;;1.83;;
46090;SDS011;31826;53.572;10.170;2023-12-20T04:46:10;6.60;;;1.88;;
46090;SDS011;31826;53.572;10.170;2023-12-20T04:48:36;14.32;;;2.35;;
46090;SDS011;31826;53.572;10.170;2023-12-20T04:51:02;10.65;;;2.78;;
46090;SDS011;31826;53.572;10.170;2023-12-20T04:53:27;9.20;;;1.90;;
46090;SDS011;31826;53.572;10.170;2023-12-20T04:55:53;10.37;;;1.90;;
46090;SDS011;31826;53.572;10.170;2023-12-20T04:58:19;8.83;;;2.30;;
46090;SDS011;31826;53.572;10.170;2023-12-20T05:00:45;9.40;;;1.80;;
46090;SDS011;31826;53.572;10.170;2023-12-20T05:03:10;13.48;;;2.40;;
46090;SDS011;31826;53.572;10.170;2023-12-20T05:05:36;11.23;;;2.10;;
46090;SDS011;31826;53.572;10.170;2023-12-20T05:08:02;9.07;;;2.42;;
46090;SDS011;31826;53.572;10.170;2023-12-20T05:10:29;12.05;;;2.60;;
46090;SDS011;31826;53.572;10.170;2023-12-20T05:12:54;12.35;;;2.60;;
46090;SDS011;31826;53.572;10.170;2023-12-20T05:15:20;8.80;;;2.45;;
46090;SDS011;31826;53.572;10.170;2023-12-20T05:17:46;10.93;;;2.50;;
46090;SDS011;31826;53.572;10.170;2023-12-20T05:20:11;13.02;;;3.08;;
46090;SDS011;31826;53.572;10.170;2023-12-20T05:22:37;11.47;;;2.03;;
46090;SDS011;31826;53.572;10.170;2023-12-20T05:25:03;10.68;;;2.70;;
46090;SDS011;31826;53.572;10.170;2023-12-20T05:27:29;12.30;;;2.53;;
46090;SDS011;31826;53.572;10.170;2023-12-20T05:29:55;12.88;;;2.00;;
46090;SDS011;31826;53.572;10.170;2023-12-20T05:32:22;8.20;;;2.07;;
46090;SDS011;31826;53.572;10.170;2023-12-20T05:34:48;10.68;;;1.88;;
46090;SDS011;31826;53.572;10.170;2023-12-20T05:37:14;13.63;;;2.85;;
46090;SDS011;31826;53.572;10.170;2023-12-20T05:39:40;10.10;;;2.20;;
46090;SDS011;31826;53.572;10.170;2023-12-20T05:42:05;7.53;;;2.30;;
46090;SDS011;31826;53.572;10.170;2023-12-20T05:44:31;10.50;;;2.47;;
46090;SDS011;31826;53.572;10.170;2023-12-20T05:46:57;16.10;;;2.87;;
46090;SDS011;31826;53.572;10.170;2023-12-20T05:49:22;11.57;;;2.47;;
46090;SDS011;31826;53.572;10.170;2023-12-20T05:51:48;10.50;;;2.35;;
46090;SDS011;31826;53.572;10.170;2023-12-20T05:54:16;12.80;;;2.22;;
46090;SDS011;31826;53.572;10.170;2023-12-20T05:56:41;10.50;;;2.00;;
46090;SDS011;31826;53.572;10.170;2023-12-20T05:59:07;11.93;;;2.30;;
46090;SDS011;31826;53.572;10.170;2023-12-20T06:01:33;11.20;;;2.17;;
46090;SDS011;31826;53.572;10.170;2023-12-20T06:03:58;9.47;;;2.57;;
46090;SDS011;31826;53.572;10.170;2023-12-20T06:06:24;10.23;;;2.20;;
46090;SDS011;31826;53.572;10.170;2023-12-20T06:08:50;11.83;;;2.63;;
46090;SDS011;31826;53.572;10.170;2023-12-20T06:11:16;10.27;;;1.90;;
46090;SDS011;31826;53.572;10.170;2023-12-20T06:13:41;10.20;;;3.13;;
46090;SDS011;31826;53.572;10.170;2023-12-20T06:16:07;8.45;;;2.40;;
46090;SDS011;31826;53.572;10.170;2023-12-20T06:18:33;6.57;;;2.05;;
46090;SDS011;31826;53.572;10.170;2023-12-20T06:20:58;9.30;;;2.38;;
46090;SDS011;31826;53.572;10.170;2023-12-20T06:23:24;14.20;;;2.10;;
46090;SDS011;31826;53.572;10.170;2023-12-20T06:25:50;11.00;;;2.40;;
46090;SDS011;31826;53.572;10.170;2023-12-20T06:28:15;9.40;;;1.97;;
46090;SDS011;31826;53.572;10.170;2023-12-20T06:30:41;10.03;;;2.43;;
46090;SDS011;31826;53.572;10.170;2023-12-20T06:33:07;9.13;;;2.38;;
46090;SDS011;31826;53.572;10.170;2023-12-20T06:35:34;6.53;;;2.08;;
46090;SDS011;31826;53.572;10.170;2023-12-20T06:38:00;10.05;;;2.20;;
46090;SDS011;31826;53.572;10.170;2023-12-20T06:40:26;8.70;;;2.35;;
46090;SDS011;31826;53.572;10.170;2023-12-20T06:42:52;15.82;;;2.55;;
46090;SDS011;31826;53.572;10.170;2023-12-20T06:45:17;13.40;;;2.30;;
46090;SDS011;31826;53.572;10.170;2023-12-20T06:47:43;10.32;;;2.13;;
46090;SDS011;31826;53.572;10.170;2023-12-20T06:50:09;9.53;;;2.23;;
46090;SDS011;31826;53.572;10.170;2023-12-20T06:52:34;15.00;;;2.80;;
46090;SDS011;31826;53.572;10.170;2023-12-20T06:55:00;12.57;;;2.40;;
46090;SDS011;31826;53.572;10.170;2023-12-20T06:57:26;11.43;;;2.50;;
46090;SDS011;31826;53.572;10.170;2023-12-20T06:59:52;10.37;;;2.80;;
46090;SDS011;31826;53.572;10.170;2023-12-20T07:02:18;11.57;;;2.75;;
46090;SDS011;31826;53.572;10.170;2023-12-20T07:04:44;12.48;;;2.63;;
46090;SDS011;31826;53.572;10.170;2023-12-20T07:07:10;7.90;;;2.10;;
46090;SDS011;31826;53.572;10.170;2023-12-20T07:09:35;13.43;;;2.60;;
46090;SDS011;31826;53.572;10.170;2023-12-20T07:12:02;9.40;;;1.90;;
46090;SDS011;31826;53.572;10.170;2023-12-20T07:14:28;11.23;;;2.00;;
46090;SDS011;31826;53.572;10.170;2023-12-20T07:16:54;14.10;;;2.10;;
46090;SDS011;31826;53.572;10.170;2023-12-20T07:19:20;10.82;;;2.17;;
46090;SDS011;31826;53.572;10.170;2023-12-20T07:21:45;10.60;;;3.10;;
46090;SDS011;31826;53.572;10.170;2023-12-20T07:24:11;11.73;;;2.47;;
46090;SDS011;31826;53.572;10.170;2023-12-20T07:26:37;11.53;;;2.63;;
46090;SDS011;31826;53.572;10.170;2023-12-20T07:29:03;12.15;;;2.50;;
46090;SDS011;31826;53.572;10.170;2023-12-20T07:31:29;9.37;;;2.10;;
46090;SDS011;31826;53.572;10.170;2023-12-20T07:33:55;15.82;;;3.33;;
46090;SDS011;31826;53.572;10.170;2023-12-20T07:36:21;11.57;;;2.60;;
46090;SDS011;31826;53.572;10.170;2023-12-20T07:38:47;12.13;;;2.63;;
46090;SDS011;31826;53.572;10.170;2023-12-20T07:41:13;17.23;;;2.78;;
46090;SDS011;31826;53.572;10.170;2023-12-20T07:43:40;15.88;;;2.85;;
46090;SDS011;31826;53.572;10.170;2023-12-20T07:46:07;10.88;;;2.33;;
46090;SDS011;31826;53.572;10.170;2023-12-20T07:48:36;8.98;;;2.13;;
46090;SDS011;31826;53.572;10.170;2023-12-20T07:51:02;17.77;;;2.50;;
46090;SDS011;31826;53.572;10.170;2023-12-20T07:53:33;15.32;;;2.42;;
46090;SDS011;31826;53.572;10.170;2023-12-20T07:55:59;11.65;;;2.35;;
46090;SDS011;31826;53.572;10.170;2023-12-20T07:58:24;12.23;;;2.85;;
46090;SDS011;31826;53.572;10.170;2023-12-20T08:00:50;13.43;;;2.05;;
46090;SDS011;31826;53.572;10.170;2023-12-20T08:03:16;15.52;;;2.60;;
46090;SDS011;31826;53.572;10.170;2023-12-20T08:05:41;14.03;;;2.50;;
46090;SDS011;31826;53.572;10.170;2023-12-20T08:08:07;15.03;;;3.03;;
46090;SDS011;31826;53.572;10.170;2023-12-20T08:10:33;12.97;;;2.53;;
46090;SDS011;31826;53.572;10.170;2023-12-20T08:12:59;14.27;;;2.57;;
46090;SDS011;31826;53.572;10.170;2023-12-20T08:15:24;20.67;;;2.80;;
46090;SDS011;31826;53.572;10.170;2023-12-20T08:17:50;15.15;;;2.58;;
46090;SDS011;31826;53.572;10.170;2023-12-20T08:20:16;12.50;;;3.00;;
46090;SDS011;31826;53.572;10.170;2023-12-20T08:22:42;14.57;;;2.83;;
46090;SDS011;31826;53.572;10.170;2023-12-20T08:25:08;11.77;;;2.10;;
46090;SDS011;31826;53.572;10.170;2023-12-20T08:27:34;13.53;;;2.80;;
46090;SDS011;31826;53.572;10.170;2023-12-20T08:30:05;12.73;;;2.20;;
46090;SDS011;31826;53.572;10.170;2023-12-20T08:32:31;13.55;;;2.88;;
46090;SDS011;31826;53.572;10.170;2023-12-20T08:34:57;10.37;;;2.30;;
46090;SDS011;31826;53.572;10.170;2023-12-20T08:37:23;16.60;;;2.60;;
46090;SDS011;31826;53.572;10.170;2023-12-20T08:39:49;11.73;;;2.20;;
46090;SDS011;31826;53.572;10.170;2023-12-20T08:42:14;11.00;;;2.67;;
46090;SDS011;31826;53.572;10.170;2023-12-20T08:44:40;7.80;;;2.00;;
46090;SDS011;31826;53.572;10.170;2023-12-20T08:47:06;13.70;;;2.70;;
46090;SDS011;31826;53.572;10.170;2023-12-20T08:49:32;9.13;;;2.13;;
46090;SDS011;31826;53.572;10.170;2023-12-20T08:51:57;10.73;;;2.03;;
46090;SDS011;31826;53.572;10.170;2023-12-20T08:54:23;11.87;;;2.27;;
46090;SDS011;31826;53.572;10.170;2023-12-20T08:56:49;15.97;;;3.07;;
46090;SDS011;31826;53.572;10.170;2023-12-20T08:59:15;16.77;;;3.00;;
46090;SDS011;31826;53.572;10.170;2023-12-20T09:01:41;13.90;;;2.77;;
46090;SDS011;31826;53.572;10.170;2023-12-20T09:04:06;20.83;;;2.67;;
46090;SDS011;31826;53.572;10.170;2023-12-20T09:06:32;15.63;;;2.60;;
46090;SDS011;31826;53.572;10.170;2023-12-20T09:08:58;12.97;;;3.20;;
46090;SDS011;31826;53.572;10.170;2023-12-20T09:11:24;12.33;;;2.57;;
46090;SDS011;31826;53.572;10.170;2023-12-20T09:13:49;9.07;;;2.30;;
46090;SDS011;31826;53.572;10.170;2023-12-20T09:16:15;11.93;;;2.05;;
46090;SDS011;31826;53.572;10.170;2023-12-20T09:18:41;9.90;;;1.83;;
46090;SDS011;31826;53.572;10.170;2023-12-20T09:21:07;11.27;;;2.25;;
46090;SDS011;31826;53.572;10.170;2023-12-20T09:23:33;8.93;;;1.80;;
46090;SDS011;31826;53.572;10.170;2023-12-20T09:25:59;10.00;;;2.10;;
46090;SDS011;31826;53.572;10.170;2023-12-20T09:28:24;10.83;;;2.60;;
46090;SDS011;31826;53.572;10.170;2023-12-20T09:30:50;11.13;;;2.50;;
46090;SDS011;31826;53.572;10.170;2023-12-20T09:33:16;6.47;;;2.00;;
46090;SDS011;31826;53.572;10.170;2023-12-20T09:35:42;7.33;;;1.77;;
46090;SDS011;31826;53.572;10.170;2023-12-20T09:38:07;6.93;;;1.73;;
46090;SDS011;31826;53.572;10.170;2023-12-20T09:40:34;3.78;;;1.20;;
46090;SDS011;31826;53.572;10.170;2023-12-20T09:43:04;5.90;;;1.48;;
46090;SDS011;31826;53.572;10.170;2023-12-20T09:45:35;3.50;;;1.27;;
46090;SDS011;31826;53.572;10.170;2023-12-20T09:48:02;4.47;;;1.50;;
46090;SDS011;31826;53.572;10.170;2023-12-20T09:50:30;5.90;;;1.10;;
46090;SDS011;31826;53.572;10.170;2023-12-20T09:52:57;3.88;;;1.40;;
46090;SDS011;31826;53.572;10.170;2023-12-20T09:55:25;5.25;;;1.20;;
46090;SDS011;31826;53.572;10.170;2023-12-20T09:57:54;6.00;;;1.50;;
46090;SDS011;31826;53.572;10.170;2023-12-20T10:00:19;5.83;;;1.20;;
46090;SDS011;31826;53.572;10.170;2023-12-20T10:02:49;2.63;;;1.00;;
46090;SDS011;31826;53.572;10.170;2023-12-20T10:05:19;2.60;;;1.08;;
46090;SDS011;31826;53.572;10.170;2023-12-20T10:07:55;3.97;;;1.00;;
46090;SDS011;31826;53.572;10.170;2023-12-20T10:10:21;3.83;;;0.90;;
46090;SDS011;31826;53.572;10.170;2023-12-20T10:15:28;1.08;;;0.65;;
46090;SDS011;31826;53.572;10.170;2023-12-20T10:17:53;4.03;;;0.98;;
46090;SDS011;31826;53.572;10.170;2023-12-20T10:20:20;2.97;;;0.77;;
46090;SDS011;31826;53.572;10.170;2023-12-20T10:22:46;2.30;;;0.80;;
46090;SDS011;31826;53.572;10.170;2023-12-20T10:25:12;3.35;;;1.00;;
46090;SDS011;31826;53.572;10.170;2023-12-20T10:27:38;2.93;;;0.80;;
46090;SDS011;31826;53.572;10.170;2023-12-20T10:30:04;2.70;;;0.90;;
46090;SDS011;31826;53.572;10.170;2023-12-20T10:32:30;2.43;;;0.83;;
46090;SDS011;31826;53.572;10.170;2023-12-20T10:34:56;3.50;;;0.90;;
46090;SDS011;31826;53.572;10.170;2023-12-20T10:37:24;6.75;;;1.20;;
46090;SDS011;31826;53.572;10.170;2023-12-20T10:39:51;5.25;;;1.25;;
46090;SDS011;31826;53.572;10.170;2023-12-20T10:42:21;1.88;;;0.82;;
46090;SDS011;31826;53.572;10.170;2023-12-20T10:44:48;5.60;;;1.00;;
46090;SDS011;31826;53.572;10.170;2023-12-20T10:47:15;1.50;;;0.82;;
46090;SDS011;31826;53.572;10.170;2023-12-20T10:49:42;2.42;;;1.00;;
46090;SDS011;31826;53.572;10.170;2023-12-20T10:52:09;3.15;;;1.13;;
46090;SDS011;31826;53.572;10.170;2023-12-20T10:54:38;2.33;;;0.90;;
46090;SDS011;31826;53.572;10.170;2023-12-20T10:57:05;4.47;;;1.20;;
46090;SDS011;31826;53.572;10.170;2023-12-20T10:59:32;2.97;;;1.15;;
46090;SDS011;31826;53.572;10.170;2023-12-20T11:02:02;2.30;;;1.10;;
46090;SDS011;31826;53.572;10.170;2023-12-20T11:04:44;6.57;;;1.30;;
46090;SDS011;31826;53.572;10.170;2023-12-20T11:12:54;4.50;;;1.20;;
46090;SDS011;31826;53.572;10.170;2023-12-20T11:15:21;3.55;;;1.27;;
46090;SDS011;31826;53.572;10.170;2023-12-20T11:17:54;4.50;;;1.30;;
46090;SDS011;31826;53.572;10.170;2023-12-20T11:20:22;5.18;;;1.25;;
46090;SDS011;31826;53.572;10.170;2023-12-20T11:22:52;6.00;;;1.30;;
46090;SDS011;31826;53.572;10.170;2023-12-20T11:25:19;8.03;;;1.87;;
46090;SDS011;31826;53.572;10.170;2023-12-20T11:27:46;6.20;;;1.67;;
46090;SDS011;31826;53.572;10.170;2023-12-20T11:33:15;3.40;;;1.63;;
46090;SDS011;31826;53.572;10.170;2023-12-20T11:35:41;3.38;;;1.13;;
46090;SDS011;31826;53.572;10.170;2023-12-20T11:38:08;8.45;;;1.52;;
46090;SDS011;31826;53.572;10.170;2023-12-20T11:40:35;6.07;;;1.55;;
46090;SDS011;31826;53.572;10.170;2023-12-20T11:43:01;2.10;;;1.10;;
46090;SDS011;31826;53.572;10.170;2023-12-20T11:45:27;4.45;;;1.40;;
46090;SDS011;31826;53.572;10.170;2023-12-20T11:47:53;5.45;;;1.80;;
46090;SDS011;31826;53.572;10.170;2023-12-20T11:50:19;6.95;;;2.90;;
46090;SDS011;31826;53.572;10.170;2023-12-20T11:52:46;13.20;;;4.80;;
46090;SDS011;31826;53.572;10.170;2023-12-20T11:55:12;4.70;;;1.70;;
46090;SDS011;31826;53.572;10.170;2023-12-20T11:57:39;5.72;;;1.52;;
46090;SDS011;31826;53.572;10.170;2023-12-20T12:00:05;5.72;;;1.40;;
46090;SDS011;31826;53.572;10.170;2023-12-20T12:02:31;11.17;;;1.50;;
46090;SDS011;31826;53.572;10.170;2023-12-20T12:04:57;6.82;;;1.60;;
46090;SDS011;31826;53.572;10.170;2023-12-20T12:07:24;7.13;;;1.80;;
46090;SDS011;31826;53.572;10.170;2023-12-20T12:09:50;7.85;;;2.45;;
46090;SDS011;31826;53.572;10.170;2023-12-20T12:12:16;9.38;;;2.10;;
46090;SDS011;31826;53.572;10.170;2023-12-20T12:14:44;8.55;;;2.60;;
46090;SDS011;31826;53.572;10.170;2023-12-20T12:17:11;8.80;;;1.73;;
46090;SDS011;31826;53.572;10.170;2023-12-20T12:19:41;8.52;;;1.80;;
46090;SDS011;31826;53.572;10.170;2023-12-20T12:22:09;11.57;;;2.23;;
46090;SDS011;31826;53.572;10.170;2023-12-20T12:24:47;13.20;;;2.10;;
46090;SDS011;31826;53.572;10.170;2023-12-20T12:27:14;9.43;;;1.70;;
46090;SDS011;31826;53.572;10.170;2023-12-20T12:29:40;7.15;;;2.00;;
46090;SDS011;31826;53.572;10.170;2023-12-20T12:32:24;9.25;;;2.03;;
46090;SDS011;31826;53.572;10.170;2023-12-20T12:34:50;11.17;;;2.33;;
46090;SDS011;31826;53.572;10.170;2023-12-20T12:37:16;7.87;;;2.13;;
46090;SDS011;31826;53.572;10.170;2023-12-20T12:39:42;10.83;;;1.97;;
46090;SDS011;31826;53.572;10.170;2023-12-20T12:42:08;8.07;;;1.57;;
46090;SDS011;31826;53.572;10.170;2023-12-20T12:44:33;4.47;;;1.70;;
46090;SDS011;31826;53.572;10.170;2023-12-20T12:46:59;10.50;;;2.20;;
46090;SDS011;31826;53.572;10.170;2023-12-20T12:49:25;11.32;;;2.05;;
46090;SDS011;31826;53.572;10.170;2023-12-20T12:51:53;9.57;;;2.67;;
46090;SDS011;31826;53.572;10.170;2023-12-20T12:54:21;11.85;;;2.38;;
46090;SDS011;31826;53.572;10.170;2023-12-20T12:56:46;12.67;;;2.17;;
46090;SDS011;31826;53.572;10.170;2023-12-20T12:59:12;9.38;;;2.33;;
46090;SDS011;31826;53.572;10.170;2023-12-20T13:01:38;11.20;;;2.50;;
46090;SDS011;31826;53.572;10.170;2023-12-20T13:04:04;12.43;;;2.93;;
46090;SDS011;31826;53.572;10.170;2023-12-20T13:06:35;10.65;;;2.88;;
46090;SDS011;31826;53.572;10.170;2023-12-20T13:09:01;12.90;;;2.73;;
46090;SDS011;31826;53.572;10.170;2023-12-20T13:11:27;10.63;;;2.67;;
46090;SDS011;31826;53.572;10.170;2023-12-20T13:13:53;12.00;;;2.87;;
46090;SDS011;31826;53.572;10.170;2023-12-20T13:16:18;15.27;;;3.90;;
46090;SDS011;31826;53.572;10.170;2023-12-20T13:18:44;9.63;;;2.88;;
46090;SDS011;31826;53.572;10.170;2023-12-20T13:21:10;12.90;;;2.80;;
46090;SDS011;31826;53.572;10.170;2023-12-20T13:23:36;14.00;;;2.95;;
46090;SDS011;31826;53.572;10.170;2023-12-20T13:26:02;15.27;;;2.53;;
46090;SDS011;31826;53.572;10.170;2023-12-20T13:28:28;13.90;;;2.33;;
46090;SDS011;31826;53.572;10.170;2023-12-20T13:30:53;13.75;;;2.50;;
46090;SDS011;31826;53.572;10.170;2023-12-20T13:33:19;12.93;;;3.10;;
46090;SDS011;31826;53.572;10.170;2023-12-20T13:35:45;11.57;;;2.27;;
46090;SDS011;31826;53.572;10.170;2023-12-20T13:38:12;10.77;;;2.40;;
46090;SDS011;31826;53.572;10.170;2023-12-20T13:40:38;10.10;;;2.17;;
46090;SDS011;31826;53.572;10.170;2023-12-20T13:43:04;13.23;;;2.50;;
46090;SDS011;31826;53.572;10.170;2023-12-20T13:45:30;11.05;;;2.40;;
46090;SDS011;31826;53.572;10.170;2023-12-20T13:47:55;11.55;;;2.85;;
46090;SDS011;31826;53.572;10.170;2023-12-20T13:50:21;15.90;;;2.88;;
46090;SDS011;31826;53.572;10.170;2023-12-20T13:52:47;12.60;;;3.08;;
46090;SDS011;31826;53.572;10.170;2023-12-20T13:55:13;15.10;;;3.17;;
46090;SDS011;31826;53.572;10.170;2023-12-20T13:57:39;17.00;;;3.80;;
46090;SDS011;31826;53.572;10.170;2023-12-20T14:00:06;12.30;;;3.55;;
46090;SDS011;31826;53.572;10.170;2023-12-20T14:02:39;10.90;;;2.95;;
46090;SDS011;31826;53.572;10.170;2023-12-20T14:05:08;15.73;;;2.75;;
46090;SDS011;31826;53.572;10.170;2023-12-20T14:07:35;12.93;;;2.92;;
46090;SDS011;31826;53.572;10.170;2023-12-20T14:10:01;17.73;;;3.20;;
46090;SDS011;31826;53.572;10.170;2023-12-20T14:12:26;11.97;;;2.80;;
46090;SDS011;31826;53.572;10.170;2023-12-20T14:14:52;14.13;;;3.50;;
46090;SDS011;31826;53.572;10.170;2023-12-20T14:17:20;15.25;;;3.33;;
46090;SDS011;31826;53.572;10.170;2023-12-20T14:19:46;15.25;;;3.58;;
46090;SDS011;31826;53.572;10.170;2023-12-20T14:22:12;13.13;;;3.53;;
46090;SDS011;31826;53.572;10.170;2023-12-20T14:24:41;11.07;;;3.40;;
46090;SDS011;31826;53.572;10.170;2023-12-20T14:27:07;19.70;;;4.00;;
46090;SDS011;31826;53.572;10.170;2023-12-20T14:29:34;16.02;;;3.80;;
46090;SDS011;31826;53.572;10.170;2023-12-20T14:32:00;15.13;;;3.55;;
46090;SDS011;31826;53.572;10.170;2023-12-20T14:34:28;15.43;;;3.57;;